Time;durP1;ratioP1;P1;durP2;ratioP2;P2;SDS_P1;SDS_P2;PMS_P1;PMS_P2;Temp;Humidity;BMP_temperature;BMP_pressure;BME280_temperature;BME280_humidity;BME280_pressure;Samples;Min_cycle;Max_cycle;Signal;HPM_P1;HPM_P2
2023/03/03 00:01:10;;;;;;;;;;;;;;;7.10;74.09;102285.69;7327426;19;19925;-59
2023/03/03 00:03:37;;;;;;;;;;;;;;;7.12;73.94;102288.19;7324023;19;19926;-62
2023/03/03 00:06:07;;;;;;;;;;;;;;;7.10;74.08;102285.69;7347143;19;19929;-62
2023/03/03 00:08:34;;;;;;;;;;;;;;;7.12;74.79;102283.81;7357829;19;20232;-62
2023/03/03 00:11:03;;;;;;;;;;;;;;;7.11;75.00;102282.13;7356831;19;19990;-66
2023/03/03 00:13:31;;;;;;;;;;;;;;;7.14;74.48;102278.50;7356971;19;19929;-57
2023/03/03 00:16:01;;;;;;;;;;;;;;;7.14;74.06;102288.97;7356244;19;19953;-63
2023/03/03 00:18:31;;;;;;;;;;;;;;;7.14;74.55;102279.34;7357568;19;19943;-61
2023/03/03 00:21:00;;;;;;;;;;;;;;;7.15;73.96;102291.50;7358115;19;19957;-60
2023/03/03 00:23:30;;;;;;;;;;;;;;;7.18;74.00;102288.69;7358622;19;19944;-61
2023/03/03 00:25:58;;;;;;;;;;;;;;;7.19;75.14;102294.75;7358632;19;19996;-60
2023/03/03 00:28:27;;;;;;;;;;;;;;;7.19;74.52;102297.38;7359293;19;19998;-61
2023/03/03 00:30:56;;;;;;;;;;;;;;;7.17;73.03;102292.22;7357287;19;20023;-62
2023/03/03 00:33:27;;;;;;;;;;;;;;;7.18;73.12;102311.38;7356626;19;19986;-62
2023/03/03 00:35:55;;;;;;;;;;;;;;;7.10;73.39;102308.41;7337366;19;20671;-63
2023/03/03 00:38:22;;;;;;;;;;;;;;;7.15;74.35;102306.34;7354459;19;19950;-61
2023/03/03 00:40:49;;;;;;;;;;;;;;;7.15;73.28;102311.59;7358150;19;20343;-61
2023/03/03 00:43:19;;;;;;;;;;;;;;;7.16;73.07;102306.25;7356687;19;19919;-63
2023/03/03 00:45:49;;;;;;;;;;;;;;;7.19;74.25;102307.84;7353256;19;19919;-62
2023/03/03 00:48:19;;;;;;;;;;;;;;;7.14;73.25;102312.50;7355242;19;20708;-60
2023/03/03 00:50:47;;;;;;;;;;;;;;;7.20;73.76;102313.00;7353299;19;19923;-60
2023/03/03 00:53:16;;;;;;;;;;;;;;;7.17;72.73;102313.16;7353921;19;20343;-61
2023/03/03 00:55:43;;;;;;;;;;;;;;;7.15;72.22;102301.97;7356037;19;19933;-61
2023/03/03 00:58:14;;;;;;;;;;;;;;;7.20;72.62;102309.53;7351702;19;21490;-62
2023/03/03 01:00:41;;;;;;;;;;;;;;;7.19;72.86;102310.47;7352627;19;19925;-58
2023/03/03 01:03:11;;;;;;;;;;;;;;;7.23;72.65;102304.09;7350919;19;19918;-62
2023/03/03 01:05:39;;;;;;;;;;;;;;;7.22;72.58;102308.47;7355354;19;19926;-62
2023/03/03 01:08:06;;;;;;;;;;;;;;;7.25;74.17;102310.94;7354827;19;19918;-62
2023/03/03 01:10:34;;;;;;;;;;;;;;;7.26;73.51;102301.31;7352967;19;20518;-60
2023/03/03 01:13:01;;;;;;;;;;;;;;;7.27;73.97;102308.19;7354741;19;20710;-60
2023/03/03 01:15:28;;;;;;;;;;;;;;;7.30;73.65;102311.50;7352487;19;20236;-61
2023/03/03 01:17:55;;;;;;;;;;;;;;;7.31;73.84;102313.16;7353611;19;20022;-61
2023/03/03 01:20:22;;;;;;;;;;;;;;;7.37;72.79;102317.16;7353802;19;19940;-60
2023/03/03 01:22:49;;;;;;;;;;;;;;;7.38;72.40;102316.22;7354377;19;20534;-61
2023/03/03 01:25:16;;;;;;;;;;;;;;;7.39;72.66;102315.31;7356859;19;20388;-58
2023/03/03 01:27:43;;;;;;;;;;;;;;;7.42;73.87;102316.88;7354581;19;19921;-59
2023/03/03 01:30:10;;;;;;;;;;;;;;;7.47;72.30;102317.44;7351244;19;19925;-61
2023/03/03 01:32:37;;;;;;;;;;;;;;;7.47;71.40;102318.28;7353045;19;20343;-62
2023/03/03 01:35:04;;;;;;;;;;;;;;;7.41;71.04;102329.16;7354673;19;19938;-61
2023/03/03 01:37:33;;;;;;;;;;;;;;;7.43;71.98;102323.78;7356700;19;19921;-61
2023/03/03 01:39:59;;;;;;;;;;;;;;;7.32;71.15;102327.06;7361180;19;19922;-62
2023/03/03 01:42:28;;;;;;;;;;;;;;;7.35;72.30;102311.19;7361293;19;20489;-61
2023/03/03 01:44:57;;;;;;;;;;;;;;;7.32;73.17;102325.31;7359484;19;20336;-61
2023/03/03 01:47:28;;;;;;;;;;;;;;;7.37;75.87;102325.03;7360356;19;20753;-59
2023/03/03 01:49:57;;;;;;;;;;;;;;;7.37;74.44;102326.78;7358940;19;20015;-62
2023/03/03 01:52:28;;;;;;;;;;;;;;;7.37;74.29;102316.31;7357938;19;19931;-59
2023/03/03 01:54:59;;;;;;;;;;;;;;;7.39;74.05;102317.91;7361987;19;20418;-61
2023/03/03 01:57:28;;;;;;;;;;;;;;;7.43;74.30;102321.19;7360424;19;19933;-62
2023/03/03 01:59:56;;;;;;;;;;;;;;;7.45;71.69;102325.41;7358379;19;20379;-63
2023/03/03 02:02:24;;;;;;;;;;;;;;;7.48;71.65;102319.13;7358761;19;19915;-60
2023/03/03 02:04:51;;;;;;;;;;;;;;;7.50;72.23;102318.09;7355718;19;19922;-66
2023/03/03 02:07:19;;;;;;;;;;;;;;;7.54;71.65;102313.50;7352798;19;20632;-63
2023/03/03 02:09:50;;;;;;;;;;;;;;;7.56;70.59;102314.25;7360173;19;19921;-62
2023/03/03 02:12:19;;;;;;;;;;;;;;;7.56;71.27;102311.63;7361489;19;19922;-62
2023/03/03 02:14:46;;;;;;;;;;;;;;;7.54;70.82;102313.50;7359378;19;19923;-61
2023/03/03 02:17:13;;;;;;;;;;;;;;;7.54;70.82;102316.97;7358227;19;19932;-62
2023/03/03 02:19:40;;;;;;;;;;;;;;;7.56;71.66;102315.09;7360833;19;20142;-62
2023/03/03 02:22:07;;;;;;;;;;;;;;;7.59;70.96;102314.06;7358583;19;20260;-60
2023/03/03 02:24:40;;;;;;;;;;;;;;;7.57;71.18;102316.75;7360437;19;19919;-60
2023/03/03 02:27:07;;;;;;;;;;;;;;;7.56;71.69;102317.72;7359804;19;19953;-61
2023/03/03 02:29:34;;;;;;;;;;;;;;;7.58;73.35;102312.38;7357255;19;21772;-61
2023/03/03 02:32:01;;;;;;;;;;;;;;;7.58;73.48;102312.38;7356963;19;19926;-59
2023/03/03 02:34:28;;;;;;;;;;;;;;;7.57;70.62;102310.69;7359033;19;19923;-60
2023/03/03 02:36:55;;;;;;;;;;;;;;;7.58;71.64;102318.44;7354786;19;20497;-59
2023/03/03 02:39:25;;;;;;;;;;;;;;;7.56;72.04;102316.88;7359957;19;19982;-59
2023/03/03 02:41:55;;;;;;;;;;;;;;;7.55;71.97;102308.19;7358327;19;19923;-60
2023/03/03 02:44:23;;;;;;;;;;;;;;;7.54;70.97;102319.59;7359004;19;20487;-62
2023/03/03 02:46:51;;;;;;;;;;;;;;;7.56;70.83;102322.13;7353229;19;20808;-63
2023/03/03 02:49:21;;;;;;;;;;;;;;;7.57;70.62;102311.53;7356184;19;20309;-58
2023/03/03 02:51:48;;;;;;;;;;;;;;;7.59;70.66;102316.66;7355399;19;20477;-60
2023/03/03 02:54:16;;;;;;;;;;;;;;;7.57;71.34;102316.75;7359025;19;19925;-62
2023/03/03 02:56:43;;;;;;;;;;;;;;;7.62;71.84;102316.47;7357793;19;19927;-60
2023/03/03 02:59:10;;;;;;;;;;;;;;;7.62;71.73;102311.22;7357830;19;19982;-64
2023/03/03 03:01:37;;;;;;;;;;;;;;;7.61;70.94;102320.03;7356398;19;19923;-60
2023/03/03 03:04:06;;;;;;;;;;;;;;;7.61;72.79;102317.44;7355088;19;19926;-60
2023/03/03 03:06:35;;;;;;;;;;;;;;;7.62;71.15;102324.31;7355150;19;19998;-59
2023/03/03 03:09:02;;;;;;;;;;;;;;;7.61;72.26;102328.75;7357808;19;20006;-60
2023/03/03 03:11:29;;;;;;;;;;;;;;;7.58;70.26;102328.91;7356748;19;20407;-62
2023/03/03 03:13:55;;;;;;;;;;;;;;;7.58;70.36;102325.47;7356348;19;19999;-62
2023/03/03 03:16:22;;;;;;;;;;;;;;;7.56;70.14;102335.22;7356911;19;20417;-62
2023/03/03 03:18:49;;;;;;;;;;;;;;;7.51;70.32;102325.03;7357701;19;19946;-63
2023/03/03 03:21:16;;;;;;;;;;;;;;;7.46;71.18;102327.09;7358107;19;20601;-61
2023/03/03 03:23:43;;;;;;;;;;;;;;;7.44;71.36;102336.81;7357245;19;19929;-61
2023/03/03 03:26:10;;;;;;;;;;;;;;;7.45;71.73;102321.94;7359330;19;19945;-59
2023/03/03 03:28:37;;;;;;;;;;;;;;;7.49;70.66;102329.50;7357753;19;20450;-61
2023/03/03 03:31:04;;;;;;;;;;;;;;;7.47;70.91;102325.28;7353794;19;19926;-60
2023/03/03 03:33:32;;;;;;;;;;;;;;;7.48;70.79;102322.56;7357464;19;20018;-59
2023/03/03 03:35:58;;;;;;;;;;;;;;;7.49;71.62;102324.28;7357522;19;19922;-62
2023/03/03 03:38:26;;;;;;;;;;;;;;;7.51;70.81;102329.41;7357969;19;19940;-60
2023/03/03 03:40:53;;;;;;;;;;;;;;;7.51;71.46;102326.81;7356577;19;19923;-60
2023/03/03 03:43:20;;;;;;;;;;;;;;;7.52;70.42;102331.06;7356909;19;20264;-58
2023/03/03 03:45:47;;;;;;;;;;;;;;;7.47;71.35;102328.75;7355540;19;19946;-61
2023/03/03 03:48:14;;;;;;;;;;;;;;;7.48;71.41;102332.22;7358555;19;19926;-61
2023/03/03 03:50:41;;;;;;;;;;;;;;;7.48;70.90;102343.53;7355499;19;19929;-59
2023/03/03 03:53:08;;;;;;;;;;;;;;;7.49;72.35;102334.75;7357766;19;20006;-59
2023/03/03 03:55:34;;;;;;;;;;;;;;;7.48;71.94;102335.66;7356853;19;19918;-62
2023/03/03 03:58:01;;;;;;;;;;;;;;;7.45;71.30;102340.28;7358391;19;19930;-61
2023/03/03 04:00:29;;;;;;;;;;;;;;;7.50;71.00;102340.81;7354105;19;19927;-62
2023/03/03 04:02:56;;;;;;;;;;;;;;;7.50;70.54;102338.22;7356311;19;19990;-61
2023/03/03 04:05:23;;;;;;;;;;;;;;;7.49;70.41;102331.28;7352974;19;19933;-62
2023/03/03 04:07:50;;;;;;;;;;;;;;;7.49;70.23;102333.91;7354265;19;19927;-60
2023/03/03 04:10:17;;;;;;;;;;;;;;;7.46;70.01;102341.97;7356799;19;19982;-61
2023/03/03 04:12:43;;;;;;;;;;;;;;;7.39;70.14;102348.50;7358016;19;19947;-59
2023/03/03 04:15:11;;;;;;;;;;;;;;;7.39;71.47;102340.63;7354916;19;19926;-59
2023/03/03 04:17:38;;;;;;;;;;;;;;;7.36;70.85;102341.69;7356809;19;19930;-60
2023/03/03 04:20:06;;;;;;;;;;;;;;;7.37;71.16;102345.13;7356076;19;20028;-59
2023/03/03 04:22:34;;;;;;;;;;;;;;;7.34;71.09;102348.78;7356476;19;19951;-60
2023/03/03 04:25:04;;;;;;;;;;;;;;;7.35;70.38;102350.47;7357021;19;19919;-61
2023/03/03 04:27:31;;;;;;;;;;;;;;;7.36;70.27;102341.69;7356580;19;19927;-62
2023/03/03 04:29:58;;;;;;;;;;;;;;;7.35;70.79;102340.00;7354521;19;19929;-61
2023/03/03 04:32:25;;;;;;;;;;;;;;;7.37;70.49;102343.34;7355510;19;19925;-62
2023/03/03 04:34:52;;;;;;;;;;;;;;;7.38;70.04;102349.44;7357644;19;19923;-60
2023/03/03 04:37:33;;;;;;;;;;;;;;;7.34;70.51;102343.53;7355198;19;19926;-62
2023/03/03 04:40:00;;;;;;;;;;;;;;;7.28;71.06;102341.28;7353222;19;19929;-62
2023/03/03 04:42:29;;;;;;;;;;;;;;;7.29;70.99;102337.75;7355149;19;20022;-61
2023/03/03 04:44:55;;;;;;;;;;;;;;;7.31;70.20;102347.19;7353506;19;19938;-61
2023/03/03 04:47:22;;;;;;;;;;;;;;;7.32;71.34;102342.78;7355975;19;19926;-59
2023/03/03 04:49:49;;;;;;;;;;;;;;;7.32;71.00;102343.63;7355054;19;20914;-61
2023/03/03 04:52:16;;;;;;;;;;;;;;;7.35;71.48;102349.63;7353541;19;19919;-62
2023/03/03 04:54:42;;;;;;;;;;;;;;;7.34;70.86;102340.09;7356131;19;19925;-62
2023/03/03 04:57:09;;;;;;;;;;;;;;;7.31;70.99;102346.38;7354479;19;19926;-61
2023/03/03 04:59:36;;;;;;;;;;;;;;;7.34;70.67;102358.41;7355928;19;19979;-61
2023/03/03 05:02:04;;;;;;;;;;;;;;;7.32;71.81;102348.03;7353072;19;20376;-59
2023/03/03 05:04:31;;;;;;;;;;;;;;;7.32;71.63;102356.72;7355710;19;19927;-61
2023/03/03 05:06:58;;;;;;;;;;;;;;;7.23;70.94;102352.06;7350454;19;19927;-60
2023/03/03 05:09:24;;;;;;;;;;;;;;;7.20;71.54;102354.03;7354049;19;20042;-62
2023/03/03 05:11:51;;;;;;;;;;;;;;;7.17;71.56;102351.56;7350338;19;19948;-64
2023/03/03 05:14:18;;;;;;;;;;;;;;;7.15;71.69;102353.47;7357558;19;19922;-59
2023/03/03 05:16:45;;;;;;;;;;;;;;;7.15;72.38;102343.00;7356187;19;19947;-60
2023/03/03 05:19:12;;;;;;;;;;;;;;;7.16;71.80;102358.59;7357578;19;19978;-60
2023/03/03 05:21:41;;;;;;;;;;;;;;;7.17;71.55;102351.56;7355063;19;19926;-61
2023/03/03 05:24:09;;;;;;;;;;;;;;;7.17;71.77;102351.56;7356755;19;19923;-61
2023/03/03 05:26:38;;;;;;;;;;;;;;;7.08;71.43;102357.38;7356120;19;20291;-60
2023/03/03 05:29:06;;;;;;;;;;;;;;;7.06;71.50;102357.44;7354204;19;19915;-61
2023/03/03 05:31:33;;;;;;;;;;;;;;;7.04;71.79;102351.50;7351724;19;19926;-59
2023/03/03 05:34:00;;;;;;;;;;;;;;;7.03;72.05;102362.88;7354889;19;20799;-60
2023/03/03 05:36:28;;;;;;;;;;;;;;;7.05;73.20;102361.03;7352229;19;19951;-60
2023/03/03 05:38:55;;;;;;;;;;;;;;;7.04;71.75;102356.72;7353158;19;19927;-59
2023/03/03 05:41:22;;;;;;;;;;;;;;;7.04;73.92;102356.72;7356164;19;20811;-61
2023/03/03 05:43:49;;;;;;;;;;;;;;;7.04;73.83;102355.88;7352967;19;20411;-64
2023/03/03 05:46:17;;;;;;;;;;;;;;;7.06;73.03;102360.06;7353466;19;19933;-61
2023/03/03 05:48:44;;;;;;;;;;;;;;;7.08;71.98;102357.38;7353738;19;19957;-58
2023/03/03 05:51:11;;;;;;;;;;;;;;;7.07;72.81;102353.06;7352641;19;20984;-60
2023/03/03 05:53:38;;;;;;;;;;;;;;;7.07;71.93;102347.81;7352753;19;19923;-62
2023/03/03 05:56:06;;;;;;;;;;;;;;;7.06;71.58;102351.41;7355515;19;19926;-60
2023/03/03 05:58:33;;;;;;;;;;;;;;;7.05;71.56;102347.94;7353573;19;19930;-60
2023/03/03 06:01:00;;;;;;;;;;;;;;;7.01;71.76;102356.88;7353091;19;19931;-61
2023/03/03 06:03:27;;;;;;;;;;;;;;;7.02;71.79;102348.13;7353748;19;19994;-61
2023/03/03 06:05:54;;;;;;;;;;;;;;;7.00;72.20;102351.78;7354042;19;19927;-61
2023/03/03 06:08:21;;;;;;;;;;;;;;;7.03;73.83;102352.41;7347504;19;19926;-61
2023/03/03 06:10:48;;;;;;;;;;;;;;;7.08;72.00;102347.75;7353390;19;19922;-60
2023/03/03 06:13:15;;;;;;;;;;;;;;;7.08;71.89;102352.97;7352430;19;19926;-60
2023/03/03 06:15:42;;;;;;;;;;;;;;;7.10;72.79;102345.88;7351350;19;20002;-61
2023/03/03 06:18:09;;;;;;;;;;;;;;;7.12;72.49;102346.63;7354102;19;20002;-61
2023/03/03 06:20:37;;;;;;;;;;;;;;;7.08;72.10;102355.59;7351968;19;19982;-60
2023/03/03 06:23:04;;;;;;;;;;;;;;;7.08;72.28;102341.66;7356800;19;19923;-60
2023/03/03 06:25:34;;;;;;;;;;;;;;;7.06;72.78;102347.00;7361163;19;19930;-62
2023/03/03 06:28:02;;;;;;;;;;;;;;;7.04;73.25;102353.25;7362313;19;19923;-61
2023/03/03 06:30:32;;;;;;;;;;;;;;;7.07;73.07;102356.53;7358444;19;19927;-62
2023/03/03 06:33:01;;;;;;;;;;;;;;;7.11;72.34;102349.34;7360923;19;19926;-63
2023/03/03 06:35:29;;;;;;;;;;;;;;;7.14;72.37;102352.63;7359313;19;19955;-61
2023/03/03 06:37:56;;;;;;;;;;;;;;;7.16;72.80;102352.53;7358681;19;19955;-60
2023/03/03 06:40:24;;;;;;;;;;;;;;;7.18;72.23;102343.63;7360394;19;19945;-63
2023/03/03 06:42:52;;;;;;;;;;;;;;;7.25;70.88;102351.97;7359702;19;19926;-61
2023/03/03 06:45:20;;;;;;;;;;;;;;;7.24;70.88;102352.91;7359145;19;20553;-61
2023/03/03 06:47:48;;;;;;;;;;;;;;;7.24;72.27;102364.22;7359504;19;20552;-61
2023/03/03 06:50:23;;;;;;;;;;;;;;;7.24;72.09;102364.22;7359321;19;19927;-61
2023/03/03 06:53:00;;;;;;;;;;;;;;;7.25;70.70;102360.66;7362051;19;19926;-61
2023/03/03 06:55:30;;;;;;;;;;;;;;;7.25;70.58;102358.06;7360691;19;20494;-63
2023/03/03 06:58:11;;;;;;;;;;;;;;;7.26;70.70;102369.38;7361440;19;20004;-57
2023/03/03 07:00:45;;;;;;;;;;;;;;;7.26;71.04;102366.75;7360146;19;19933;-59
2023/03/03 07:03:20;;;;;;;;;;;;;;;7.28;70.34;102367.47;7359041;19;19927;-61
2023/03/03 07:05:59;;;;;;;;;;;;;;;7.32;70.15;102369.81;7360069;19;20716;-60
2023/03/03 07:08:30;;;;;;;;;;;;;;;7.35;69.65;102368.78;7355404;19;20004;-59
2023/03/03 07:11:09;;;;;;;;;;;;;;;7.34;69.94;102371.50;7357299;19;20563;-62
2023/03/03 07:13:43;;;;;;;;;;;;;;;7.37;69.28;102374.75;7358927;19;20471;-58
2023/03/03 07:16:16;;;;;;;;;;;;;;;7.38;69.65;102380.84;7357489;19;19998;-60
2023/03/03 07:18:51;;;;;;;;;;;;;;;7.38;71.25;102375.59;7359110;19;20022;-60
2023/03/03 07:21:23;;;;;;;;;;;;;;;7.38;71.75;102383.47;7358410;19;19934;-61
2023/03/03 07:23:55;;;;;;;;;;;;;;;7.42;72.13;102377.94;7357720;19;19932;-58
2023/03/03 07:26:27;;;;;;;;;;;;;;;7.48;69.77;102387.19;7357514;19;19922;-65
2023/03/03 07:28:58;;;;;;;;;;;;;;;7.46;69.68;102382.06;7357108;19;19927;-62
2023/03/03 07:31:40;;;;;;;;;;;;;;;7.37;70.25;102385.22;7354521;19;20690;-61
2023/03/03 07:34:18;;;;;;;;;;;;;;;7.35;70.42;102392.34;7358874;19;20453;-60
2023/03/03 07:36:56;;;;;;;;;;;;;;;7.37;71.05;102390.47;7356774;19;19910;-62
2023/03/03 07:39:31;;;;;;;;;;;;;;;7.39;70.99;102396.47;7358256;19;19919;-63
2023/03/03 07:42:14;;;;;;;;;;;;;;;7.39;72.11;102399.09;7358914;19;19929;-62
2023/03/03 07:44:47;;;;;;;;;;;;;;;7.43;73.41;102399.72;7357476;19;19926;-62
2023/03/03 07:47:38;;;;;;;;;;;;;;;7.45;73.96;102406.56;7354620;19;20121;-61
2023/03/03 07:50:13;;;;;;;;;;;;;;;7.52;74.34;102410.47;7358529;19;19937;-61
2023/03/03 07:52:55;;;;;;;;;;;;;;;7.56;74.47;102408.53;7355071;19;19933;-60
2023/03/03 07:55:28;;;;;;;;;;;;;;;7.62;73.42;102410.75;7357950;19;20887;-60
2023/03/03 07:58:01;;;;;;;;;;;;;;;7.69;72.21;102417.31;7353960;19;19919;-61
2023/03/03 08:00:28;;;;;;;;;;;;;;;7.65;71.73;102416.66;7350886;19;19974;-60
2023/03/03 08:02:59;;;;;;;;;;;;;;;7.67;71.78;102421.78;7355907;19;19918;-60
2023/03/03 08:05:27;;;;;;;;;;;;;;;7.69;71.95;102422.56;7359274;19;19958;-61
2023/03/03 08:07:57;;;;;;;;;;;;;;;7.71;72.03;102425.94;7351645;19;20266;-63
2023/03/03 08:10:27;;;;;;;;;;;;;;;7.68;71.55;102423.47;7352974;19;19934;-59
2023/03/03 08:12:54;;;;;;;;;;;;;;;7.62;72.03;102429.09;7360001;19;20467;-60
2023/03/03 08:15:24;;;;;;;;;;;;;;;7.57;72.01;102421.50;7359502;19;20017;-58
2023/03/03 08:17:52;;;;;;;;;;;;;;;7.59;73.76;102424.91;7358168;19;19947;-58
2023/03/03 08:20:22;;;;;;;;;;;;;;;7.58;73.84;102441.53;7357887;19;19959;-59
2023/03/03 08:22:49;;;;;;;;;;;;;;;7.62;72.36;102440.41;7358918;19;19918;-57
2023/03/03 08:25:17;;;;;;;;;;;;;;;7.65;72.63;102442.03;7359051;19;20255;-60
2023/03/03 08:27:44;;;;;;;;;;;;;;;7.66;72.72;102438.47;7362565;19;20489;-59
2023/03/03 08:30:11;;;;;;;;;;;;;;;7.68;72.28;102444.44;7359397;19;20295;-61
2023/03/03 08:32:38;;;;;;;;;;;;;;;7.73;71.76;102448.47;7358080;19;19941;-62
2023/03/03 08:35:06;;;;;;;;;;;;;;;7.71;72.22;102442.50;7359504;19;19926;-60
2023/03/03 08:37:36;;;;;;;;;;;;;;;7.74;73.71;102439.69;7357087;19;20219;-57
2023/03/03 08:40:03;;;;;;;;;;;;;;;7.76;72.53;102439.59;7360063;19;20196;-57
2023/03/03 08:42:30;;;;;;;;;;;;;;;7.82;73.13;102435.75;7360080;19;20434;-62
2023/03/03 08:45:03;;;;;;;;;;;;;;;7.88;72.53;102435.34;7359103;19;19975;-61
2023/03/03 08:47:37;;;;;;;;;;;;;;;7.96;71.51;102435.72;7354451;19;19939;-58
2023/03/03 08:50:04;;;;;;;;;;;;;;;8.02;71.27;102441.44;7356992;19;19922;-61
2023/03/03 08:52:33;;;;;;;;;;;;;;;8.11;70.23;102438.22;7355926;19;20305;-59
2023/03/03 08:55:00;;;;;;;;;;;;;;;8.16;71.34;102430.91;7359602;19;19914;-60
2023/03/03 08:57:27;;;;;;;;;;;;;;;8.16;69.09;102433.53;7356877;19;19923;-58
2023/03/03 08:59:54;;;;;;;;;;;;;;;8.11;69.54;102430.38;7358523;19;19926;-59
2023/03/03 09:02:21;;;;;;;;;;;;;;;8.11;69.75;102438.22;7358303;19;20408;-61
2023/03/03 09:04:48;;;;;;;;;;;;;;;8.09;70.19;102434.84;7359932;19;19955;-57
2023/03/03 09:07:15;;;;;;;;;;;;;;;8.15;69.80;102428.38;7357620;19;19915;-61
2023/03/03 09:09:42;;;;;;;;;;;;;;;8.27;73.47;102434.63;7360301;19;20002;-61
2023/03/03 09:12:13;;;;;;;;;;;;;;;8.50;76.32;102434.00;7355867;19;19915;-58
2023/03/03 09:14:40;;;;;;;;;;;;;;;8.54;69.83;102438.13;7356808;19;19925;-60
2023/03/03 09:17:10;;;;;;;;;;;;;;;8.57;67.50;102448.44;7360303;19;20532;-62
2023/03/03 09:19:37;;;;;;;;;;;;;;;8.54;67.60;102449.44;7362017;19;20320;-61
2023/03/03 09:22:07;;;;;;;;;;;;;;;8.55;67.58;102445.03;7334572;19;20517;-59
2023/03/03 09:24:35;;;;;;;;;;;;;;;8.54;67.95;102451.22;7340509;19;19918;-62
2023/03/03 09:27:12;;;;;;;;;;;;;;;8.53;68.55;102450.38;7359097;19;20245;-61
2023/03/03 09:29:39;;;;;;;;;;;;;;;8.57;66.20;102449.28;7354870;19;20344;-61
2023/03/03 09:32:20;;;;;;;;;;;;;;;8.48;66.25;102459.53;7351025;19;20687;-58
2023/03/03 09:34:47;;;;;;;;;;;;;;;8.38;66.18;102456.63;7354050;19;19954;-60
2023/03/03 09:37:17;;;;;;;;;;;;;;;8.29;66.65;102449.31;7352441;19;19926;-59
2023/03/03 09:39:47;;;;;;;;;;;;;;;8.30;66.68;102450.19;7356611;19;19922;-61
2023/03/03 09:42:17;;;;;;;;;;;;;;;8.31;66.92;102454.50;7355953;19;19927;-58
2023/03/03 09:44:45;;;;;;;;;;;;;;;8.28;67.31;102452.06;7356235;19;19922;-61
2023/03/03 09:47:15;;;;;;;;;;;;;;;8.29;67.62;102451.94;7355736;19;19914;-60
2023/03/03 09:49:53;;;;;;;;;;;;;;;8.33;66.46;102455.25;7359004;19;19985;-60
2023/03/03 09:52:23;;;;;;;;;;;;;;;8.18;66.48;102455.22;7355038;19;19922;-60
2023/03/03 09:54:50;;;;;;;;;;;;;;;8.21;66.73;102466.47;7356563;19;19919;-59
2023/03/03 09:57:20;;;;;;;;;;;;;;;8.24;67.51;102454.00;7357932;19;19923;-62
2023/03/03 09:59:48;;;;;;;;;;;;;;;8.28;67.63;102460.72;7364248;19;19923;-61
2023/03/03 10:02:15;;;;;;;;;;;;;;;8.35;66.58;102458.59;7361690;19;20006;-59
2023/03/03 10:04:52;;;;;;;;;;;;;;;8.43;65.20;102456.34;7365957;19;19946;-61
2023/03/03 10:07:22;;;;;;;;;;;;;;;8.50;66.13;102457.63;7361453;19;19919;-60
2023/03/03 10:09:49;;;;;;;;;;;;;;;8.54;65.25;102464.34;7361316;19;19919;-61
2023/03/03 10:12:21;;;;;;;;;;;;;;;8.53;64.76;102467.94;7359757;19;19927;-60
2023/03/03 10:14:48;;;;;;;;;;;;;;;8.50;64.89;102476.81;7363518;19;19933;-60
2023/03/03 10:17:19;;;;;;;;;;;;;;;8.54;64.79;102472.22;7363292;19;19951;-61
2023/03/03 10:19:54;;;;;;;;;;;;;;;8.58;64.87;102466.66;7364353;19;19926;-61
2023/03/03 10:22:23;;;;;;;;;;;;;;;8.62;65.58;102485.69;7360634;19;19970;-62
2023/03/03 10:24:51;;;;;;;;;;;;;;;8.67;66.20;102485.41;7358576;19;19922;-62
2023/03/03 10:27:18;;;;;;;;;;;;;;;8.73;66.46;102483.22;7361702;19;19959;-59
2023/03/03 10:29:46;;;;;;;;;;;;;;;8.76;65.13;102488.25;7363386;19;19971;-59
2023/03/03 10:32:14;;;;;;;;;;;;;;;8.79;64.75;102492.44;7359625;19;19949;-61
2023/03/03 10:34:45;;;;;;;;;;;;;;;8.86;64.29;102485.88;7365145;19;19929;-59
2023/03/03 10:37:19;;;;;;;;;;;;;;;8.89;63.27;102489.13;7361598;19;19926;-59
2023/03/03 10:39:57;;;;;;;;;;;;;;;8.91;63.83;102492.50;7364500;19;19978;-63
2023/03/03 10:42:24;;;;;;;;;;;;;;;8.96;62.36;102490.41;7365401;19;19930;-62
2023/03/03 10:44:58;;;;;;;;;;;;;;;8.97;62.80;102481.59;7362790;19;19925;-59
2023/03/03 10:47:27;;;;;;;;;;;;;;;9.01;62.43;102484.88;7361161;19;19922;-60
2023/03/03 10:49:57;;;;;;;;;;;;;;;9.01;62.37;102485.72;7361597;19;19982;-60
2023/03/03 10:52:25;;;;;;;;;;;;;;;9.06;61.76;102479.31;7359574;19;19933;-62
2023/03/03 10:54:55;;;;;;;;;;;;;;;9.07;62.79;102481.00;7362705;19;19933;-58
2023/03/03 10:57:26;;;;;;;;;;;;;;;9.08;63.02;102486.16;7359844;19;20337;-60
2023/03/03 11:00:01;;;;;;;;;;;;;;;9.08;61.59;102482.69;7361661;19;19926;-60
2023/03/03 11:02:37;;;;;;;;;;;;;;;9.10;61.81;102489.50;7363106;19;19919;-65
2023/03/03 11:05:06;;;;;;;;;;;;;;;9.10;60.90;102492.13;7359879;19;19986;-59
2023/03/03 11:07:39;;;;;;;;;;;;;;;9.12;60.60;102489.41;7358835;19;20320;-62
2023/03/03 11:10:09;;;;;;;;;;;;;;;9.08;61.44;102493.19;7358746;19;19926;-61
2023/03/03 11:12:36;;;;;;;;;;;;;;;9.18;61.24;102496.88;7356581;19;19931;-58
2023/03/03 11:15:12;;;;;;;;;;;;;;;9.17;59.97;102496.03;7356935;19;19978;-59
2023/03/03 11:17:46;;;;;;;;;;;;;;;9.17;59.62;102496.03;7357625;19;20014;-60
2023/03/03 11:20:19;;;;;;;;;;;;;;;9.20;62.41;102498.44;7361707;19;19943;-60
2023/03/03 11:22:52;;;;;;;;;;;;;;;9.22;60.39;102493.09;7359306;19;19919;-61
2023/03/03 11:25:25;;;;;;;;;;;;;;;9.25;61.32;102498.97;7360237;19;20428;-58
2023/03/03 11:27:53;;;;;;;;;;;;;;;9.30;61.52;102499.50;7362737;19;19917;-60
2023/03/03 11:30:21;;;;;;;;;;;;;;;9.30;59.30;102498.66;7355950;19;19917;-60
2023/03/03 11:32:51;;;;;;;;;;;;;;;9.19;58.26;102502.03;7357457;19;19933;-61
2023/03/03 11:35:21;;;;;;;;;;;;;;;9.08;58.39;102503.69;7361529;19;19930;-62
2023/03/03 11:37:52;;;;;;;;;;;;;;;9.07;58.87;102512.50;7358547;19;19951;-59
2023/03/03 11:40:21;;;;;;;;;;;;;;;9.05;59.08;102498.63;7360553;19;19999;-60
2023/03/03 11:42:51;;;;;;;;;;;;;;;9.08;58.09;102501.06;7362182;19;19931;-61
2023/03/03 11:45:30;;;;;;;;;;;;;;;9.10;58.73;102504.41;7361324;19;20597;-59
2023/03/03 11:48:06;;;;;;;;;;;;;;;9.09;59.04;102500.97;7359229;19;19922;-60
2023/03/03 11:50:33;;;;;;;;;;;;;;;9.16;57.98;102496.97;7362076;19;20011;-61
2023/03/03 11:53:03;;;;;;;;;;;;;;;9.21;57.62;102499.28;7358388;19;20340;-62
2023/03/03 11:55:53;;;;;;;;;;;;;;;9.25;57.57;102495.50;7362179;19;19927;-59
2023/03/03 11:58:23;;;;;;;;;;;;;;;9.28;57.64;102503.19;7363471;19;19922;-62
2023/03/03 12:00:54;;;;;;;;;;;;;;;9.26;57.01;102502.44;7358668;19;19983;-62
2023/03/03 12:03:24;;;;;;;;;;;;;;;9.17;56.16;102500.44;7359829;19;19922;-57
2023/03/03 12:05:52;;;;;;;;;;;;;;;9.20;56.32;102497.59;7361925;19;20272;-60
2023/03/03 12:08:22;;;;;;;;;;;;;;;9.16;56.37;102496.13;7360320;19;19923;-59
2023/03/03 12:10:55;;;;;;;;;;;;;;;9.11;58.01;102491.19;7361432;19;19978;-61
2023/03/03 12:13:35;;;;;;;;;;;;;;;9.15;57.37;102497.91;7357649;19;20270;-60
2023/03/03 12:16:03;;;;;;;;;;;;;;;9.13;57.52;102489.31;7359431;19;20683;-61
2023/03/03 12:18:30;;;;;;;;;;;;;;;9.18;56.54;102496.88;7360506;19;20339;-59
2023/03/03 12:20:59;;;;;;;;;;;;;;;9.22;57.86;102487.84;7360946;19;19953;-62
2023/03/03 12:23:29;;;;;;;;;;;;;;;9.21;57.04;102494.88;7361127;19;19923;-62
2023/03/03 12:26:00;;;;;;;;;;;;;;;9.24;55.99;102492.06;7361496;19;19919;-61
2023/03/03 12:28:33;;;;;;;;;;;;;;;9.10;56.27;102489.50;7360593;19;20198;-59
2023/03/03 12:31:00;;;;;;;;;;;;;;;9.05;57.13;102483.72;7358585;19;20247;-60
2023/03/03 12:33:28;;;;;;;;;;;;;;;9.03;57.50;102475.13;7362086;19;19930;-58
2023/03/03 12:36:02;;;;;;;;;;;;;;;9.04;58.84;102474.16;7361137;19;19922;-59
2023/03/03 12:38:31;;;;;;;;;;;;;;;9.07;58.56;102476.59;7359857;19;19923;-63
2023/03/03 12:41:00;;;;;;;;;;;;;;;9.13;57.27;102473.56;7357443;19;20347;-60
2023/03/03 12:43:31;;;;;;;;;;;;;;;8.97;58.06;102478.97;7355474;19;20335;-60
2023/03/03 12:46:02;;;;;;;;;;;;;;;8.96;58.26;102473.81;7358155;19;19919;-60
2023/03/03 12:48:29;;;;;;;;;;;;;;;8.78;59.09;102478.53;7359014;19;19926;-58
2023/03/03 12:50:59;;;;;;;;;;;;;;;8.78;58.92;102475.06;7358391;19;20426;-66
2023/03/03 12:53:31;;;;;;;;;;;;;;;8.79;59.50;102471.47;7358106;19;19931;-61
2023/03/03 12:56:04;;;;;;;;;;;;;;;8.83;59.79;102473.81;7360550;19;19923;-58
2023/03/03 12:58:34;;;;;;;;;;;;;;;8.90;60.28;102474.22;7359885;19;19911;-63